Terminal Aerodrome Forecast
Issued by NWS

Home | Current Version | Previous Version | Text Only | Print | Product List | Glossary On
Versions: 1 2 3 4 5 6 7 8 9 10 11 12 13 14
000
FTUS46 KSEW 291723
TAFCLM
TAF
KCLM 291723Z 2918/3018 07007KT P6SM FEW250
     FM292100 04007KT P6SM SKC
     FM300000 35006KT P6SM SKC
     FM300300 28006KT P6SM SKC
     FM301200 VRB03KT P6SM SKC=

USA.gov is the U.S. government's official web portal to all federal, state and local government web resources and services.